sensor_id;sensor_type;location;lat;lon;timestamp;pressure;altitude;pressure_sealevel;temperature
18474;BMP180;30265;52.408;13.500;2023-04-03T00:08:32;103461.00;;;7.10
18474;BMP180;30265;52.408;13.500;2023-04-03T00:18:54;103454.00;;;7.20
18474;BMP180;30265;52.408;13.500;2023-04-03T00:29:16;103481.00;;;7.10
18474;BMP180;30265;52.408;13.500;2023-04-03T00:39:39;103478.00;;;7.10
18474;BMP180;30265;52.408;13.500;2023-04-03T00:50:01;103479.00;;;6.90
18474;BMP180;30265;52.408;13.500;2023-04-03T01:00:24;103470.00;;;6.90
18474;BMP180;30265;52.408;13.500;2023-04-03T01:10:46;103486.00;;;6.80
18474;BMP180;30265;52.408;13.500;2023-04-03T01:32:06;103486.00;;;6.50
18474;BMP180;30265;52.408;13.500;2023-04-03T01:42:28;103501.00;;;6.40
18474;BMP180;30265;52.408;13.500;2023-04-03T01:52:51;103505.00;;;6.50
18474;BMP180;30265;52.408;13.500;2023-04-03T02:03:13;103503.00;;;6.40
18474;BMP180;30265;52.408;13.500;2023-04-03T02:13:37;103507.00;;;6.40
18474;BMP180;30265;52.408;13.500;2023-04-03T02:23:58;103512.00;;;6.50
18474;BMP180;30265;52.408;13.500;2023-04-03T02:34:21;103515.00;;;6.40
18474;BMP180;30265;52.408;13.500;2023-04-03T02:44:44;103537.00;;;6.40
18474;BMP180;30265;52.408;13.500;2023-04-03T02:55:08;103542.00;;;6.50
18474;BMP180;30265;52.408;13.500;2023-04-03T03:05:31;103543.00;;;6.30
18474;BMP180;30265;52.408;13.500;2023-04-03T03:15:54;103536.00;;;6.40
18474;BMP180;30265;52.408;13.500;2023-04-03T03:26:16;103556.00;;;6.40
18474;BMP180;30265;52.408;13.500;2023-04-03T03:36:40;103556.00;;;6.40
18474;BMP180;30265;52.408;13.500;2023-04-03T03:47:02;103556.00;;;6.40
18474;BMP180;30265;52.408;13.500;2023-04-03T03:57:27;103566.00;;;6.20
18474;BMP180;30265;52.408;13.500;2023-04-03T04:07:49;103566.00;;;6.10
18474;BMP180;30265;52.408;13.500;2023-04-03T04:18:12;103566.00;;;6.00
18474;BMP180;30265;52.408;13.500;2023-04-03T04:28:37;103581.00;;;6.00
18474;BMP180;30265;52.408;13.500;2023-04-03T04:39:02;103583.00;;;6.00
18474;BMP180;30265;52.408;13.500;2023-04-03T04:49:24;103585.00;;;6.20
18474;BMP180;30265;52.408;13.500;2023-04-03T04:59:47;103580.00;;;6.80
18474;BMP180;30265;52.408;13.500;2023-04-03T05:10:09;103566.00;;;7.30
18474;BMP180;30265;52.408;13.500;2023-04-03T05:20:34;103567.00;;;7.60
18474;BMP180;30265;52.408;13.500;2023-04-03T05:30:58;103574.00;;;7.40
18474;BMP180;30265;52.408;13.500;2023-04-03T05:41:27;103586.00;;;7.50
18474;BMP180;30265;52.408;13.500;2023-04-03T05:51:49;103595.00;;;7.60
18474;BMP180;30265;52.408;13.500;2023-04-03T06:02:24;103593.00;;;7.90
18474;BMP180;30265;52.408;13.500;2023-04-03T06:12:46;103597.00;;;7.80
18474;BMP180;30265;52.408;13.500;2023-04-03T06:23:09;103596.00;;;8.20
18474;BMP180;30265;52.408;13.500;2023-04-03T06:33:31;103608.00;;;8.10
18474;BMP180;30265;52.408;13.500;2023-04-03T06:43:53;103600.00;;;8.70
18474;BMP180;30265;52.408;13.500;2023-04-03T06:54:21;103603.00;;;8.80
18474;BMP180;30265;52.408;13.500;2023-04-03T07:04:45;103615.00;;;8.80
18474;BMP180;30265;52.408;13.500;2023-04-03T07:15:07;103605.00;;;9.10
18474;BMP180;30265;52.408;13.500;2023-04-03T07:25:32;103603.00;;;9.20
18474;BMP180;30265;52.408;13.500;2023-04-03T07:35:54;103640.00;;;9.00
18474;BMP180;30265;52.408;13.500;2023-04-03T07:46:19;103627.00;;;9.20
18474;BMP180;30265;52.408;13.500;2023-04-03T07:56:41;103640.00;;;9.20
18474;BMP180;30265;52.408;13.500;2023-04-03T08:07:05;103656.00;;;9.10
18474;BMP180;30265;52.408;13.500;2023-04-03T08:17:26;103629.00;;;9.70
18474;BMP180;30265;52.408;13.500;2023-04-03T08:27:49;103626.00;;;9.80
18474;BMP180;30265;52.408;13.500;2023-04-03T08:38:11;103619.00;;;10.60
18474;BMP180;30265;52.408;13.500;2023-04-03T08:48:36;103590.00;;;10.90
18474;BMP180;30265;52.408;13.500;2023-04-03T08:59:04;103609.00;;;10.10
18474;BMP180;30265;52.408;13.500;2023-04-03T09:09:33;103578.00;;;11.00
18474;BMP180;30265;52.408;13.500;2023-04-03T09:20:01;103613.00;;;10.30
18474;BMP180;30265;52.408;13.500;2023-04-03T09:30:26;103610.00;;;10.20
18474;BMP180;30265;52.408;13.500;2023-04-03T09:40:49;103616.00;;;10.10
18474;BMP180;30265;52.408;13.500;2023-04-03T09:51:15;103610.00;;;10.50
18474;BMP180;30265;52.408;13.500;2023-04-03T10:01:38;103588.00;;;10.60
18474;BMP180;30265;52.408;13.500;2023-04-03T10:12:03;103575.00;;;10.90
18474;BMP180;30265;52.408;13.500;2023-04-03T10:22:33;103585.00;;;10.30
18474;BMP180;30265;52.408;13.500;2023-04-03T10:33:23;103597.00;;;10.20
18474;BMP180;30265;52.408;13.500;2023-04-03T10:43:57;103555.00;;;10.90
18474;BMP180;30265;52.408;13.500;2023-04-03T10:54:25;103555.00;;;11.00
18474;BMP180;30265;52.408;13.500;2023-04-03T11:04:50;103539.00;;;11.30
18474;BMP180;30265;52.408;13.500;2023-04-03T11:15:20;103545.00;;;10.90
18474;BMP180;30265;52.408;13.500;2023-04-03T11:25:45;103545.00;;;10.70
18474;BMP180;30265;52.408;13.500;2023-04-03T11:36:11;103555.00;;;10.40
18474;BMP180;30265;52.408;13.500;2023-04-03T11:46:50;103540.00;;;10.40
18474;BMP180;30265;52.408;13.500;2023-04-03T11:57:45;103519.00;;;12.10
18474;BMP180;30265;52.408;13.500;2023-04-03T12:08:24;103477.00;;;12.50
18474;BMP180;30265;52.408;13.500;2023-04-03T12:19:00;103510.00;;;11.60
18474;BMP180;30265;52.408;13.500;2023-04-03T12:29:27;103530.00;;;11.00
18474;BMP180;30265;52.408;13.500;2023-04-03T12:39:58;103517.00;;;10.80
18474;BMP180;30265;52.408;13.500;2023-04-03T12:50:27;103501.00;;;11.30
18474;BMP180;30265;52.408;13.500;2023-04-03T13:01:03;103504.00;;;11.00
18474;BMP180;30265;52.408;13.500;2023-04-03T13:11:30;103505.00;;;11.10
18474;BMP180;30265;52.408;13.500;2023-04-03T13:22:00;103482.00;;;11.60
18474;BMP180;30265;52.408;13.500;2023-04-03T13:32:25;103477.00;;;11.10
18474;BMP180;30265;52.408;13.500;2023-04-03T13:42:59;103466.00;;;11.70
18474;BMP180;30265;52.408;13.500;2023-04-03T13:53:24;103467.00;;;10.80
18474;BMP180;30265;52.408;13.500;2023-04-03T14:03:56;103473.00;;;11.00
18474;BMP180;30265;52.408;13.500;2023-04-03T14:14:20;103454.00;;;11.50
18474;BMP180;30265;52.408;13.500;2023-04-03T14:24:43;103449.00;;;11.50
18474;BMP180;30265;52.408;13.500;2023-04-03T14:35:05;103442.00;;;11.70
18474;BMP180;30265;52.408;13.500;2023-04-03T14:45:27;103446.00;;;11.50
18474;BMP180;30265;52.408;13.500;2023-04-03T14:55:49;103447.00;;;11.60
18474;BMP180;30265;52.408;13.500;2023-04-03T15:06:13;103479.00;;;10.70
18474;BMP180;30265;52.408;13.500;2023-04-03T15:16:36;103464.00;;;11.00
18474;BMP180;30265;52.408;13.500;2023-04-03T15:27:00;103461.00;;;11.00
18474;BMP180;30265;52.408;13.500;2023-04-03T15:37:23;103457.00;;;10.70
18474;BMP180;30265;52.408;13.500;2023-04-03T15:47:47;103457.00;;;10.60
18474;BMP180;30265;52.408;13.500;2023-04-03T15:58:09;103452.00;;;10.60
18474;BMP180;30265;52.408;13.500;2023-04-03T16:08:32;103463.00;;;10.50
18474;BMP180;30265;52.408;13.500;2023-04-03T16:18:56;103478.00;;;10.20
18474;BMP180;30265;52.408;13.500;2023-04-03T16:29:20;103440.00;;;11.10
18474;BMP180;30265;52.408;13.500;2023-04-03T16:39:42;103452.00;;;10.80
18474;BMP180;30265;52.408;13.500;2023-04-03T16:50:06;103460.00;;;10.80
18474;BMP180;30265;52.408;13.500;2023-04-03T17:00:28;103456.00;;;10.60
18474;BMP180;30265;52.408;13.500;2023-04-03T17:10:51;103462.00;;;10.30
18474;BMP180;30265;52.408;13.500;2023-04-03T17:21:16;103458.00;;;10.40
18474;BMP180;30265;52.408;13.500;2023-04-03T17:31:39;103468.00;;;10.20
18474;BMP180;30265;52.408;13.500;2023-04-03T17:42:01;103466.00;;;10.20
18474;BMP180;30265;52.408;13.500;2023-04-03T17:52:25;103477.00;;;10.10
18474;BMP180;30265;52.408;13.500;2023-04-03T18:02:51;103484.00;;;10.00
18474;BMP180;30265;52.408;13.500;2023-04-03T18:13:14;103486.00;;;10.00
18474;BMP180;30265;52.408;13.500;2023-04-03T18:23:39;103506.00;;;9.90
18474;BMP180;30265;52.408;13.500;2023-04-03T18:34:03;103509.00;;;9.80
18474;BMP180;30265;52.408;13.500;2023-04-03T18:44:26;103510.00;;;9.70
18474;BMP180;30265;52.408;13.500;2023-04-03T18:54:49;103513.00;;;9.60
18474;BMP180;30265;52.408;13.500;2023-04-03T19:05:13;103512.00;;;9.40
18474;BMP180;30265;52.408;13.500;2023-04-03T19:15:36;103498.00;;;9.20
18474;BMP180;30265;52.408;13.500;2023-04-03T19:26:00;103509.00;;;9.30
18474;BMP180;30265;52.408;13.500;2023-04-03T19:36:24;103507.00;;;9.30
18474;BMP180;30265;52.408;13.500;2023-04-03T19:46:46;103494.00;;;9.30
18474;BMP180;30265;52.408;13.500;2023-04-03T19:57:12;103493.00;;;9.30
18474;BMP180;30265;52.408;13.500;2023-04-03T20:07:33;103514.00;;;9.20
18474;BMP180;30265;52.408;13.500;2023-04-03T20:17:56;103513.00;;;9.20
18474;BMP180;30265;52.408;13.500;2023-04-03T20:28:18;103506.00;;;9.10
18474;BMP180;30265;52.408;13.500;2023-04-03T20:38:41;103521.00;;;8.90
18474;BMP180;30265;52.408;13.500;2023-04-03T20:49:02;103510.00;;;8.70
18474;BMP180;30265;52.408;13.500;2023-04-03T20:59:26;103502.00;;;8.60
18474;BMP180;30265;52.408;13.500;2023-04-03T21:20:49;103496.00;;;8.50
18474;BMP180;30265;52.408;13.500;2023-04-03T21:31:10;103506.00;;;8.40
18474;BMP180;30265;52.408;13.500;2023-04-03T21:41:35;103519.00;;;8.20
18474;BMP180;30265;52.408;13.500;2023-04-03T21:51:57;103514.00;;;8.10
18474;BMP180;30265;52.408;13.500;2023-04-03T22:02:20;103518.00;;;7.80
18474;BMP180;30265;52.408;13.500;2023-04-03T22:12:42;103517.00;;;7.70
18474;BMP180;30265;52.408;13.500;2023-04-03T22:23:04;103521.00;;;7.40
18474;BMP180;30265;52.408;13.500;2023-04-03T22:33:26;103516.00;;;7.30
18474;BMP180;30265;52.408;13.500;2023-04-03T22:43:49;103524.00;;;7.10
18474;BMP180;30265;52.408;13.500;2023-04-03T22:54:11;103527.00;;;6.90
18474;BMP180;30265;52.408;13.500;2023-04-03T23:04:35;103538.00;;;6.80
18474;BMP180;30265;52.408;13.500;2023-04-03T23:14:57;103532.00;;;6.70
18474;BMP180;30265;52.408;13.500;2023-04-03T23:25:20;103533.00;;;6.60
18474;BMP180;30265;52.408;13.500;2023-04-03T23:35:41;103536.00;;;6.60
18474;BMP180;30265;52.408;13.500;2023-04-03T23:46:07;103543.00;;;6.40
18474;BMP180;30265;52.408;13.500;2023-04-03T23:56:28;103536.00;;;6.30
